Time;durP1;ratioP1;P1;durP2;ratioP2;P2;SDS_P1;SDS_P2;PMS_P1;PMS_P2;Temp;Humidity;BMP_temperature;BMP_pressure;BME280_temperature;BME280_humidity;BME280_pressure;Samples;Min_cycle;Max_cycle;Signal;HPM_P1;HPM_P2
2023/06/29 00:00:48;;;;;;;13.60;9.20;;;;;;;9.19;100.00;97280.30;110322;1241;69163;-63
2023/06/29 00:03:41;;;;;;;10.90;7.80;;;;;;;9.15;100.00;97282.82;110361;1241;58966;-64
2023/06/29 00:06:12;;;;;;;12.60;9.50;;;;;;;9.13;100.00;97276.52;110396;1242;58869;-64
2023/06/29 00:08:43;;;;;;;10.50;8.00;;;;;;;9.12;100.00;97271.44;110378;1240;70455;-65
2023/06/29 00:11:14;;;;;;;9.30;7.50;;;;;;;9.12;100.00;97272.63;110352;1241;69252;-64
2023/06/29 00:13:44;;;;;;;12.00;9.10;;;;;;;9.16;100.00;97273.75;110257;1242;69194;-65
2023/06/29 00:16:16;;;;;;;12.10;7.90;;;;;;;9.19;100.00;97276.69;110343;1242;58892;-64
2023/06/29 00:18:49;;;;;;;13.20;8.90;;;;;;;9.23;100.00;97276.05;110377;1241;58904;-65
2023/06/29 00:21:19;;;;;;;11.00;8.20;;;;;;;9.26;100.00;97271.71;110408;1240;70585;-64
2023/06/29 00:23:54;;;;;;;13.00;9.00;;;;;;;9.29;100.00;97273.02;110294;1241;68574;-65
2023/06/29 00:26:26;;;;;;;13.20;9.10;;;;;;;9.34;100.00;97267.84;110413;1241;69151;-64
2023/06/29 00:28:56;;;;;;;12.00;7.90;;;;;;;9.36;100.00;97269.38;110367;1241;58884;-64
2023/06/29 00:31:27;;;;;;;9.90;6.90;;;;;;;9.38;100.00;97268.39;110271;1241;58994;-65
2023/06/29 00:33:58;;;;;;;11.80;8.40;;;;;;;9.40;100.00;97271.95;110232;1244;70609;-65
2023/06/29 00:36:29;;;;;;;10.90;8.00;;;;;;;9.43;100.00;97263.88;110414;1242;69044;-63
2023/06/29 00:39:03;;;;;;;10.10;7.70;;;;;;;9.45;100.00;97261.83;110410;1241;69630;-65
2023/06/29 00:41:34;;;;;;;10.10;8.20;;;;;;;9.47;100.00;97257.69;110246;1242;58971;-66
2023/06/29 00:44:08;;;;;;;9.30;7.40;;;;;;;9.48;100.00;97259.34;110244;1242;58938;-63
2023/06/29 00:46:40;;;;;;;10.00;8.50;;;;;;;9.50;100.00;97257.33;110261;1241;70629;-64
2023/06/29 00:49:13;;;;;;;9.30;7.90;;;;;;;9.50;100.00;97257.09;110363;1241;68482;-64
2023/06/29 00:51:50;;;;;;;12.20;8.50;;;;;;;9.50;100.00;97256.56;110336;1242;69287;-65
2023/06/29 00:54:22;;;;;;;10.60;7.50;;;;;;;9.50;100.00;97253.11;110289;1241;59022;-66
2023/06/29 00:56:52;;;;;;;;;;;;;;;9.49;100.00;97250.76;110365;1242;58823;-65
2023/06/29 00:59:23;;;;;;;8.90;7.30;;;;;;;9.47;100.00;97252.44;110230;1240;70402;-64
2023/06/29 01:01:57;;;;;;;10.10;7.90;;;;;;;9.45;100.00;97253.80;110353;1241;68543;-64
2023/06/29 01:04:33;;;;;;;9.50;6.70;;;;;;;9.43;100.00;97254.65;110386;1241;68317;-64
2023/06/29 01:07:25;;;;;;;9.40;7.70;;;;;;;9.41;100.00;97260.16;110353;1243;58911;-64
2023/06/29 01:09:58;;;;;;;10.00;7.70;;;;;;;9.40;100.00;97261.44;110375;1240;58928;-65
2023/06/29 01:12:28;;;;;;;9.60;7.80;;;;;;;9.39;100.00;97253.55;110365;1240;70612;-64
2023/06/29 01:14:59;;;;;;;9.20;7.30;;;;;;;9.38;100.00;97252.02;110312;1241;69145;-64
2023/06/29 01:17:31;;;;;;;8.80;7.40;;;;;;;9.39;100.00;97252.14;110399;1241;68538;-64
2023/06/29 01:20:04;;;;;;;8.80;7.20;;;;;;;9.39;100.00;97246.61;110368;1241;58921;-64
2023/06/29 01:22:44;;;;;;;7.90;6.40;;;;;;;9.37;100.00;97249.81;110426;1241;58896;-65
2023/06/29 01:25:14;;;;;;;;;;;;;;;9.36;100.00;97249.06;110150;1244;71213;-64
2023/06/29 01:27:47;;;;;;;8.60;6.10;;;;;;;9.32;100.00;97247.90;110415;1241;69154;-66
2023/06/29 01:30:18;;;;;;;8.20;6.20;;;;;;;9.31;100.00;97251.70;110430;1242;69079;-65
2023/06/29 01:32:49;;;;;;;10.00;7.00;;;;;;;9.29;100.00;97245.71;110326;1241;58995;-64
2023/06/29 01:35:22;;;;;;;8.20;6.90;;;;;;;9.29;100.00;97250.11;110336;1241;58935;-64
2023/06/29 01:38:19;;;;;;;8.50;7.50;;;;;;;9.27;100.00;97251.96;110346;1242;69604;-64
2023/06/29 01:40:54;;;;;;;10.50;7.60;;;;;;;9.27;100.00;97254.20;110336;1241;69171;-64
2023/06/29 01:43:28;;;;;;;10.00;7.90;;;;;;;9.27;100.00;97249.00;110409;1240;69795;-64
2023/06/29 01:45:58;;;;;;;8.90;6.80;;;;;;;9.27;100.00;97245.73;110381;1242;58875;-64
2023/06/29 01:48:31;;;;;;;8.50;6.40;;;;;;;9.26;100.00;97246.48;110393;1241;58860;-64
2023/06/29 01:51:02;;;;;;;9.80;8.60;;;;;;;9.26;100.00;97243.88;110338;1240;70537;-63
2023/06/29 01:53:36;;;;;;;8.90;7.30;;;;;;;9.27;100.00;97246.02;110353;1240;69208;-64
2023/06/29 01:56:06;;;;;;;7.90;6.40;;;;;;;9.27;100.00;97247.98;110336;1241;68696;-66
2023/06/29 01:58:38;;;;;;;7.40;5.90;;;;;;;9.25;100.00;97248.83;110418;1241;58890;-64
2023/06/29 02:01:08;;;;;;;7.60;6.00;;;;;;;9.24;100.00;97246.98;110452;1242;58879;-64
2023/06/29 02:03:39;;;;;;;9.30;8.10;;;;;;;9.22;100.00;97241.71;110420;1242;70695;-64
2023/06/29 02:06:10;;;;;;;8.60;7.60;;;;;;;9.21;100.00;97244.02;110433;1241;68479;-65
2023/06/29 02:08:42;;;;;;;8.20;6.60;;;;;;;9.20;100.00;97244.80;110398;1241;68611;-64
2023/06/29 02:11:13;;;;;;;8.80;7.50;;;;;;;9.17;100.00;97241.14;110366;1242;59366;-64
2023/06/29 02:13:45;;;;;;;9.80;7.90;;;;;;;9.16;100.00;97247.85;110429;1241;58827;-64
2023/06/29 02:16:15;;;;;;;9.40;7.90;;;;;;;9.13;100.00;97245.63;110405;1240;71040;-64
2023/06/29 02:18:46;;;;;;;8.60;7.30;;;;;;;9.09;100.00;97242.39;110334;1240;68925;-64
2023/06/29 02:21:17;;;;;;;8.90;6.80;;;;;;;9.06;100.00;97246.98;110297;1240;69148;-64
2023/06/29 02:23:48;;;;;;;8.10;6.60;;;;;;;9.03;100.00;97247.38;110349;1249;58928;-65
2023/06/29 02:26:20;;;;;;;8.10;6.20;;;;;;;8.99;100.00;97246.42;110382;1242;59004;-64
2023/06/29 02:28:50;;;;;;;9.80;7.30;;;;;;;8.96;100.00;97244.73;110370;1242;69630;-65
2023/06/29 02:31:20;;;;;;;7.70;6.30;;;;;;;8.92;100.00;97246.72;110371;1240;68727;-64
2023/06/29 02:33:52;;;;;;;9.00;6.60;;;;;;;8.88;100.00;97243.85;110273;1240;69544;-64
2023/06/29 02:36:23;;;;;;;9.30;7.00;;;;;;;8.86;100.00;97244.00;110268;1241;58924;-65
2023/06/29 02:38:54;;;;;;;8.60;6.60;;;;;;;8.83;100.00;97242.11;110268;1242;58932;-65
2023/06/29 02:41:24;;;;;;;10.00;7.20;;;;;;;8.81;100.00;97239.83;110402;1240;70528;-65
2023/06/29 02:43:54;;;;;;;8.30;6.20;;;;;;;8.79;100.00;97244.30;110163;1245;69810;-64
2023/06/29 02:46:23;;;;;;;9.30;7.60;;;;;;;8.77;100.00;97244.78;110306;1247;69285;-65
2023/06/29 02:48:53;;;;;;;;;;;;;;;8.75;100.00;97245.66;110187;1240;58906;-64
2023/06/29 02:51:23;;;;;;;7.60;6.10;;;;;;;8.72;100.00;97247.80;110358;1242;58868;-64
2023/06/29 02:53:59;;;;;;;11.80;7.60;;;;;;;8.70;100.00;97248.95;110410;1242;70621;-64
2023/06/29 02:56:31;;;;;;;9.30;7.40;;;;;;;8.71;100.00;97250.29;110436;1242;69089;-65
2023/06/29 02:59:06;;;;;;;9.30;7.40;;;;;;;8.68;100.00;97249.34;110452;1241;69262;-65
2023/06/29 03:01:35;;;;;;;8.10;6.30;;;;;;;8.71;100.00;97247.52;110328;1240;58938;-64
2023/06/29 03:04:07;;;;;;;9.80;7.50;;;;;;;8.71;100.00;97252.16;110315;1242;58873;-64
2023/06/29 03:06:38;;;;;;;10.30;7.70;;;;;;;8.74;100.00;97250.10;110335;1241;69420;-65
2023/06/29 03:09:10;;;;;;;11.90;8.80;;;;;;;8.74;100.00;97253.88;110321;1240;68474;-65
2023/06/29 03:11:40;;;;;;;10.80;8.50;;;;;;;8.77;100.00;97256.64;110350;1248;69317;-65
2023/06/29 03:14:11;;;;;;;8.50;6.90;;;;;;;8.80;100.00;97254.88;110265;1242;58875;-64
2023/06/29 03:16:42;;;;;;;11.80;8.70;;;;;;;8.84;100.00;97254.59;110366;1241;58857;-64
2023/06/29 03:19:14;;;;;;;12.10;8.50;;;;;;;8.87;100.00;97257.66;110410;1242;71136;-64
2023/06/29 03:21:45;;;;;;;9.90;6.90;;;;;;;8.88;100.00;97257.63;110470;1241;69280;-64
2023/06/29 03:24:16;;;;;;;9.00;7.00;;;;;;;8.90;100.00;97256.27;110350;1242;69294;-64
2023/06/29 03:26:48;;;;;;;9.70;7.20;;;;;;;8.92;100.00;97254.52;110402;1241;59381;-63
2023/06/29 03:29:21;;;;;;;10.40;6.90;;;;;;;8.95;100.00;97257.11;110387;1242;59332;-64
2023/06/29 03:31:52;;;;;;;8.80;7.20;;;;;;;8.96;100.00;97257.57;110396;1241;70665;-64
2023/06/29 03:34:22;;;;;;;14.00;9.20;;;;;;;8.98;100.00;97260.27;110362;1241;68396;-65
2023/06/29 03:36:51;;;;;;;8.90;6.80;;;;;;;9.02;100.00;97263.62;110513;1240;69684;-64
2023/06/29 03:39:21;;;;;;;10.70;6.50;;;;;;;9.06;100.00;97267.70;110482;1242;58878;-64
2023/06/29 03:41:52;;;;;;;9.90;8.20;;;;;;;9.10;100.00;97272.41;110467;1241;58886;-66
2023/06/29 03:44:22;;;;;;;12.50;9.80;;;;;;;9.16;100.00;97274.41;110466;1242;69865;-64
2023/06/29 03:46:52;;;;;;;12.40;8.60;;;;;;;9.23;100.00;97274.64;110468;1241;69187;-64
2023/06/29 03:49:22;;;;;;;12.50;8.40;;;;;;;9.31;100.00;97279.30;110389;1240;69031;-64
2023/06/29 03:51:52;;;;;;;11.40;8.10;;;;;;;9.39;100.00;97276.86;110429;1242;58899;-64
2023/06/29 03:54:22;;;;;;;12.70;9.50;;;;;;;9.44;100.00;97271.59;110468;1241;58801;-64
2023/06/29 03:56:51;;;;;;;;;;;;;;;9.51;100.00;97272.34;110380;1241;70843;-65
2023/06/29 03:59:22;;;;;;;;;;;;;;;9.58;100.00;97273.95;110360;1240;69172;-64
2023/06/29 04:01:51;;;;;;;12.50;8.10;;;;;;;9.63;100.00;97272.38;110477;1242;69142;-65
2023/06/29 04:04:22;;;;;;;9.80;7.90;;;;;;;9.71;100.00;97265.57;110449;1241;58878;-65
2023/06/29 04:06:52;;;;;;;11.50;7.80;;;;;;;9.82;100.00;97261.60;110419;1241;58822;-64
2023/06/29 04:09:22;;;;;;;13.20;9.60;;;;;;;9.97;100.00;97264.36;110333;1241;71152;-65
2023/06/29 04:11:51;;;;;;;13.40;9.70;;;;;;;10.14;100.00;97265.87;110519;1241;69661;-65
2023/06/29 04:14:21;;;;;;;9.40;7.20;;;;;;;10.33;100.00;97267.33;110385;1241;69871;-65
2023/06/29 04:16:50;;;;;;;11.60;8.60;;;;;;;10.53;100.00;97268.08;110478;1241;58944;-65
2023/06/29 04:19:20;;;;;;;12.20;9.30;;;;;;;10.71;100.00;97268.66;110406;1242;58823;-64
2023/06/29 04:21:50;;;;;;;6.30;5.70;;;;;;;10.87;100.00;97272.80;110460;1242;71474;-64
2023/06/29 04:24:20;;;;;;;9.30;7.20;;;;;;;11.03;100.00;97275.80;110387;1241;69668;-64
2023/06/29 04:26:50;;;;;;;9.00;6.90;;;;;;;11.16;100.00;97276.14;110161;1242;69051;-64
2023/06/29 04:29:20;;;;;;;7.40;6.60;;;;;;;11.30;100.00;97278.97;110462;1241;58889;-66
2023/06/29 04:31:51;;;;;;;8.00;7.00;;;;;;;11.44;100.00;97279.96;110403;1241;59303;-64
2023/06/29 04:34:22;;;;;;;6.70;6.00;;;;;;;11.58;100.00;97270.81;110423;1239;71171;-66
2023/06/29 04:36:56;;;;;;;7.10;6.20;;;;;;;11.71;100.00;97275.54;110544;1241;68545;-64
2023/06/29 04:39:27;;;;;;;8.50;7.10;;;;;;;11.86;100.00;97271.11;110477;1242;69434;-64
2023/06/29 04:42:04;;;;;;;7.80;5.80;;;;;;;11.98;100.00;97268.17;110478;1242;58902;-63
2023/06/29 04:44:33;;;;;;;7.40;6.20;;;;;;;12.11;100.00;97268.52;110342;1242;58908;-64
2023/06/29 04:47:03;;;;;;;7.20;5.90;;;;;;;12.21;100.00;97273.14;110351;1242;71217;-64
2023/06/29 04:49:37;;;;;;;8.00;6.70;;;;;;;12.31;100.00;97279.13;110232;1241;68408;-67
2023/06/29 04:52:11;;;;;;;6.90;6.20;;;;;;;12.42;100.00;97283.50;110532;1241;68544;-66
2023/06/29 04:54:40;;;;;;;6.00;5.40;;;;;;;12.55;100.00;97285.40;110425;1245;58925;-67
2023/06/29 04:57:12;;;;;;;;;;;;;;;12.73;100.00;97286.32;110377;1240;58982;-65
2023/06/29 04:59:41;;;;;;;6.50;5.80;;;;;;;12.88;100.00;97284.56;110544;1241;70092;-64
2023/06/29 05:02:10;;;;;;;6.80;5.70;;;;;;;13.03;100.00;97290.04;110561;1242;69887;-66
2023/06/29 05:04:40;;;;;;;6.20;5.60;;;;;;;13.17;100.00;97292.20;110503;1242;69876;-66
2023/06/29 05:07:09;;;;;;;5.40;4.90;;;;;;;13.34;100.00;97293.96;110425;1241;58882;-63
2023/06/29 05:09:39;;;;;;;4.80;4.40;;;;;;;13.55;100.00;97294.04;110466;1241;58843;-66
2023/06/29 05:12:09;;;;;;;5.00;4.50;;;;;;;13.81;100.00;97285.48;110443;1241;70355;-64
2023/06/29 05:14:38;;;;;;;5.20;4.70;;;;;;;14.16;100.00;97283.62;110488;1242;69869;-64
2023/06/29 05:17:07;;;;;;;4.60;4.20;;;;;;;14.57;100.00;97282.89;110191;1241;68519;-64
2023/06/29 05:19:37;;;;;;;8.10;4.60;;;;;;;14.93;100.00;97286.85;110409;1242;58906;-64
2023/06/29 05:22:07;;;;;;;5.00;4.50;;;;;;;14.96;100.00;97293.36;110418;1240;58824;-64
2023/06/29 05:24:37;;;;;;;5.30;4.40;;;;;;;15.10;100.00;97299.48;110422;1242;71140;-65
2023/06/29 05:27:06;;;;;;;4.50;4.00;;;;;;;15.11;100.00;97302.81;110368;1242;69771;-65
2023/06/29 05:29:37;;;;;;;4.70;4.10;;;;;;;15.11;100.00;97305.19;110459;1242;69345;-65
2023/06/29 05:32:07;;;;;;;5.80;4.90;;;;;;;14.99;100.00;97307.97;110293;1242;58931;-64
2023/06/29 05:34:36;;;;;;;6.00;4.70;;;;;;;14.83;100.00;97308.64;110447;1241;58875;-64
2023/06/29 05:37:05;;;;;;;5.20;4.10;;;;;;;14.75;100.00;97311.98;110319;1248;71432;-64
2023/06/29 05:39:35;;;;;;;5.50;4.50;;;;;;;14.59;100.00;97317.11;110381;1242;69818;-65
2023/06/29 05:42:04;;;;;;;5.10;4.10;;;;;;;14.48;100.00;97316.86;110380;1240;69176;-65
2023/06/29 05:44:34;;;;;;;5.70;4.70;;;;;;;14.53;100.00;97316.58;110419;1242;58866;-65
2023/06/29 05:47:03;;;;;;;5.60;4.10;;;;;;;14.62;100.00;97315.30;110480;1243;58875;-64
2023/06/29 05:49:34;;;;;;;5.00;4.50;;;;;;;14.66;100.00;97313.61;110372;1241;70802;-64
2023/06/29 05:52:03;;;;;;;5.20;4.70;;;;;;;14.73;100.00;97316.52;110332;1240;69196;-64
2023/06/29 05:54:32;;;;;;;5.60;4.80;;;;;;;14.74;100.00;97313.14;110301;1241;69275;-64
2023/06/29 05:57:02;;;;;;;5.80;5.20;;;;;;;14.82;100.00;97322.38;110399;1242;58953;-64
2023/06/29 05:59:31;;;;;;;;;;;;;;;14.87;100.00;97322.84;110433;1242;58869;-64
2023/06/29 06:02:00;;;;;;;7.50;5.10;;;;;;;15.15;100.00;97321.80;110407;1241;70484;-64
2023/06/29 06:04:29;;;;;;;5.80;5.10;;;;;;;15.36;100.00;97315.95;110381;1242;70400;-64
2023/06/29 06:06:58;;;;;;;5.60;4.40;;;;;;;15.58;99.90;97314.45;110386;1242;68893;-64
2023/06/29 06:09:28;;;;;;;4.90;4.50;;;;;;;15.67;99.34;97316.79;110383;1241;58940;-65
2023/06/29 06:11:57;;;;;;;5.20;4.60;;;;;;;15.83;97.96;97313.67;110369;1241;58864;-63
2023/06/29 06:14:27;;;;;;;5.00;4.40;;;;;;;15.66;94.92;97314.24;110280;1242;70590;-63
2023/06/29 06:16:56;;;;;;;5.40;4.70;;;;;;;15.70;95.44;97315.05;110362;1241;69057;-64
2023/06/29 06:19:26;;;;;;;5.10;4.60;;;;;;;15.71;94.81;97319.69;110371;1242;69104;-63
2023/06/29 06:21:55;;;;;;;6.60;5.10;;;;;;;15.77;94.49;97323.16;110324;1240;58935;-63
2023/06/29 06:24:24;;;;;;;5.00;4.50;;;;;;;15.95;94.18;97323.58;110385;1241;58847;-64
2023/06/29 06:26:54;;;;;;;4.40;3.70;;;;;;;16.21;93.31;97323.37;110445;1241;70616;-63
2023/06/29 06:29:23;;;;;;;5.00;4.10;;;;;;;16.67;93.51;97321.44;110282;1242;69228;-65
2023/06/29 06:31:52;;;;;;;5.50;3.60;;;;;;;17.16;91.45;97323.30;110343;1242;68594;-66
2023/06/29 06:34:21;;;;;;;7.30;4.00;;;;;;;17.55;85.37;97319.84;110281;1242;58942;-63
2023/06/29 06:36:51;;;;;;;4.60;4.20;;;;;;;17.74;83.00;97316.16;110394;1242;58889;-65
2023/06/29 06:39:20;;;;;;;6.40;5.00;;;;;;;17.97;81.71;97315.35;110365;1241;70970;-64
2023/06/29 06:41:49;;;;;;;6.80;5.50;;;;;;;17.89;80.93;97319.78;110385;1242;69721;-64
2023/06/29 06:44:19;;;;;;;4.80;4.10;;;;;;;17.83;80.13;97318.36;110285;1242;68513;-64
2023/06/29 06:46:48;;;;;;;;;;;;;;;18.00;79.30;97318.79;110380;1241;58871;-64
2023/06/29 06:49:18;;;;;;;6.10;5.40;;;;;;;18.16;76.74;97319.21;110434;1242;58870;-63
2023/06/29 06:51:47;;;;;;;6.10;4.40;;;;;;;18.68;77.81;97317.72;110415;1242;71051;-64
2023/06/29 06:54:16;;;;;;;2.80;2.30;;;;;;;18.95;72.12;97314.10;110409;1247;69620;-64
2023/06/29 06:56:49;;;;;;;3.50;2.90;;;;;;;18.96;68.13;97308.47;110390;1242;69860;-64
2023/06/29 06:59:18;;;;;;;3.60;2.30;;;;;;;18.89;67.24;97314.60;110487;1242;58889;-63
2023/06/29 07:01:48;;;;;;;4.40;3.30;;;;;;;19.46;67.64;97307.83;110390;1242;58934;-65
2023/06/29 07:04:16;;;;;;;2.60;2.10;;;;;;;19.64;66.68;97310.73;110392;1242;69557;-64
2023/06/29 07:06:46;;;;;;;2.50;1.90;;;;;;;20.20;66.89;97308.88;110436;1242;69784;-64
2023/06/29 07:09:16;;;;;;;3.20;2.00;;;;;;;20.64;63.26;97310.27;110409;1241;68516;-63
2023/06/29 07:11:46;;;;;;;4.20;1.70;;;;;;;21.27;63.98;97313.81;110384;1242;58872;-65
2023/06/29 07:14:18;;;;;;;3.80;1.70;;;;;;;21.74;59.72;97314.14;110381;1242;58880;-66
2023/06/29 07:16:48;;;;;;;2.50;1.70;;;;;;;22.02;56.58;97310.95;110352;1241;70609;-64
2023/06/29 07:19:18;;;;;;;2.00;1.80;;;;;;;21.62;51.96;97312.11;110400;1240;69287;-65
2023/06/29 07:21:50;;;;;;;3.70;1.90;;;;;;;21.19;52.18;97311.80;110307;1241;69991;-64
2023/06/29 07:24:22;;;;;;;3.20;1.80;;;;;;;21.13;54.47;97312.35;110469;1242;58871;-65
2023/06/29 07:26:52;;;;;;;2.00;1.60;;;;;;;21.70;54.88;97315.88;110463;1241;58872;-64
2023/06/29 07:29:21;;;;;;;2.40;1.70;;;;;;;21.78;52.91;97316.98;110359;1240;70119;-65
2023/06/29 07:31:50;;;;;;;6.70;2.00;;;;;;;21.19;52.58;97315.14;110357;1240;69961;-63
2023/06/29 07:34:23;;;;;;;3.70;1.70;;;;;;;21.14;54.41;97315.23;110295;1241;68679;-64
2023/06/29 07:36:52;;;;;;;2.10;1.60;;;;;;;21.50;54.46;97316.10;110297;1242;58978;-63
2023/06/29 07:39:22;;;;;;;5.20;2.70;;;;;;;21.30;53.24;97316.39;110325;1242;58857;-63
2023/06/29 07:41:52;;;;;;;4.40;2.70;;;;;;;21.92;54.06;97315.48;110310;1241;69692;-64
2023/06/29 07:44:21;;;;;;;;;;;;;;;22.22;51.95;97310.08;110351;1242;68750;-64
2023/06/29 07:46:51;;;;;;;2.90;1.80;;;;;;;21.32;49.66;97312.98;110333;1242;69344;-65
2023/06/29 07:49:21;;;;;;;3.00;1.70;;;;;;;20.91;52.10;97310.61;110389;1242;59007;-64
2023/06/29 07:51:50;;;;;;;3.20;2.10;;;;;;;20.38;52.79;97310.86;110321;1240;58886;-64
2023/06/29 07:54:19;;;;;;;3.60;2.20;;;;;;;19.66;56.21;97313.36;110337;1242;71172;-63
2023/06/29 07:56:48;;;;;;;2.40;2.10;;;;;;;19.46;58.37;97315.55;110395;1242;68509;-63
2023/06/29 07:59:20;;;;;;;3.40;2.40;;;;;;;19.41;58.70;97313.43;110277;1242;69823;-64
2023/06/29 08:01:49;;;;;;;2.80;2.30;;;;;;;19.49;58.01;97312.39;110281;1243;58934;-66
2023/06/29 08:04:18;;;;;;;2.40;1.70;;;;;;;19.44;58.73;97307.98;110292;1242;58830;-63
2023/06/29 08:07:08;;;;;;;3.40;1.90;;;;;;;20.22;58.20;97312.19;110364;1241;71021;-63
2023/06/29 08:09:39;;;;;;;3.00;2.00;;;;;;;20.95;56.28;97310.38;110345;1242;69633;-63
2023/06/29 08:12:08;;;;;;;2.10;1.60;;;;;;;21.49;53.36;97312.31;110353;1242;69856;-65
2023/06/29 08:14:40;;;;;;;2.70;1.90;;;;;;;22.02;54.18;97312.13;110428;1241;58944;-64
2023/06/29 08:17:09;;;;;;;3.90;2.40;;;;;;;21.93;52.90;97313.61;110342;1242;58829;-63
2023/06/29 08:19:38;;;;;;;2.30;1.90;;;;;;;22.59;54.28;97308.23;110317;1242;71002;-63
2023/06/29 08:22:08;;;;;;;4.60;2.30;;;;;;;22.67;52.71;97311.68;110314;1242;69769;-63
2023/06/29 08:24:37;;;;;;;3.40;1.70;;;;;;;22.26;52.68;97311.17;110338;1242;69613;-65
2023/06/29 08:27:06;;;;;;;1.70;1.60;;;;;;;22.29;53.75;97311.57;110386;1240;58872;-64
2023/06/29 08:29:38;;;;;;;2.20;1.90;;;;;;;22.25;52.57;97308.59;110284;1242;58839;-63
2023/06/29 08:32:08;;;;;;;2.10;1.90;;;;;;;22.47;52.97;97303.09;110310;1242;69843;-65
2023/06/29 08:34:38;;;;;;;2.50;1.80;;;;;;;22.67;54.45;97302.46;110310;1242;69216;-63
2023/06/29 08:37:08;;;;;;;1.80;1.30;;;;;;;22.77;52.66;97302.16;110294;1240;68507;-63
2023/06/29 08:39:37;;;;;;;2.20;1.90;;;;;;;22.91;52.16;97301.73;110266;1242;58868;-63
2023/06/29 08:42:07;;;;;;;3.30;2.10;;;;;;;23.20;53.00;97300.02;110306;1241;58863;-64
2023/06/29 08:44:36;;;;;;;2.40;1.90;;;;;;;23.46;51.48;97300.63;110302;1242;70554;-63
2023/06/29 08:47:06;;;;;;;3.10;1.90;;;;;;;23.89;52.82;97301.45;110414;1242;69587;-63
2023/06/29 08:49:36;;;;;;;2.00;1.80;;;;;;;24.43;52.07;97297.77;110371;1242;69858;-64
2023/06/29 08:52:09;;;;;;;2.90;2.10;;;;;;;24.26;49.37;97296.91;110502;1241;58932;-63
2023/06/29 08:54:39;;;;;;;2.90;1.90;;;;;;;23.76;48.70;97296.63;110506;1242;59318;-65
2023/06/29 08:57:09;;;;;;;2.40;1.50;;;;;;;24.17;50.26;97292.16;110521;1240;69914;-63
2023/06/29 08:59:38;;;;;;;2.70;2.00;;;;;;;24.24;49.93;97287.71;110481;1242;69434;-63
2023/06/29 09:02:10;;;;;;;1.90;1.70;;;;;;;24.37;49.10;97284.77;110472;1242;69486;-64
2023/06/29 09:04:40;;;;;;;1.60;1.40;;;;;;;23.46;47.41;97290.73;110526;1241;58826;-63
2023/06/29 09:07:10;;;;;;;2.50;1.40;;;;;;;23.99;48.21;97284.63;110492;1245;58860;-64
2023/06/29 09:09:39;;;;;;;1.70;1.50;;;;;;;24.24;48.95;97280.15;110424;1241;71269;-64
2023/06/29 09:12:11;;;;;;;1.80;1.60;;;;;;;24.47;46.87;97279.29;110502;1240;69077;-64
2023/06/29 09:14:44;;;;;;;3.00;1.60;;;;;;;24.70;48.16;97280.45;110464;1242;69883;-64
2023/06/29 09:17:15;;;;;;;2.40;1.80;;;;;;;25.00;47.54;97279.48;110348;1242;58867;-66
2023/06/29 09:19:55;;;;;;;1.60;1.30;;;;;;;25.38;46.14;97281.36;110386;1241;58866;-66
2023/06/29 09:22:27;;;;;;;2.60;1.70;;;;;;;25.44;45.95;97281.84;110396;1242;69775;-64
2023/06/29 09:24:58;;;;;;;2.10;1.60;;;;;;;25.42;46.72;97285.10;110348;1242;69464;-64
2023/06/29 09:27:41;;;;;;;2.20;1.70;;;;;;;25.38;45.69;97287.38;110414;1240;69870;-64
2023/06/29 09:30:15;;;;;;;;;;;;;;;25.15;45.77;97285.00;110503;1242;58888;-63
2023/06/29 09:32:44;;;;;;;1.30;1.20;;;;;;;24.86;44.79;97290.64;110528;1241;58925;-64
2023/06/29 09:35:13;;;;;;;3.00;1.80;;;;;;;24.80;46.10;97284.85;110212;1243;70527;-64
2023/06/29 09:37:43;;;;;;;3.00;1.60;;;;;;;24.61;46.09;97286.43;110471;1242;69189;-63
2023/06/29 09:40:13;;;;;;;2.50;1.60;;;;;;;24.60;46.95;97294.59;110155;1244;68239;-63
2023/06/29 09:42:42;;;;;;;;;;;;;;;24.54;47.14;97295.34;110454;1244;58894;-64
2023/06/29 09:45:12;;;;;;;2.00;1.60;;;;;;;24.22;46.13;97289.58;110473;1242;58823;-64
2023/06/29 09:47:49;;;;;;;1.50;1.40;;;;;;;24.61;47.03;97286.11;110345;1242;69801;-65
2023/06/29 09:50:23;;;;;;;2.00;1.60;;;;;;;23.74;45.90;97290.66;110229;1242;69347;-63
2023/06/29 09:52:55;;;;;;;2.10;1.90;;;;;;;23.43;47.56;97293.91;110233;1242;67653;-65
2023/06/29 09:55:30;;;;;;;2.00;1.40;;;;;;;22.40;49.06;97293.98;110229;1242;58878;-63
2023/06/29 09:58:00;;;;;;;1.80;1.70;;;;;;;22.50;49.90;97289.63;110199;1242;58870;-65
2023/06/29 10:00:29;;;;;;;2.90;1.70;;;;;;;22.50;50.62;97288.73;110242;1242;70587;-64
2023/06/29 10:02:58;;;;;;;;;;;;;;;22.56;51.16;97292.56;110254;1241;69248;-64
2023/06/29 10:05:30;;;;;;;2.40;2.00;;;;;;;22.76;50.68;97283.93;110225;1242;69192;-64
2023/06/29 10:08:04;;;;;;;2.60;1.70;;;;;;;22.90;50.15;97288.91;110231;1242;59033;-64
2023/06/29 10:10:35;;;;;;;2.80;1.60;;;;;;;22.96;51.13;97288.48;110172;1242;58853;-63
2023/06/29 10:13:06;;;;;;;3.10;1.80;;;;;;;22.98;50.93;97287.81;110215;1242;71029;-64
2023/06/29 10:15:36;;;;;;;2.30;2.10;;;;;;;22.94;50.11;97287.19;110184;1241;69672;-65
2023/06/29 10:18:11;;;;;;;2.70;2.30;;;;;;;22.88;49.97;97289.14;110166;1247;69883;-65
2023/06/29 10:20:46;;;;;;;2.90;2.00;;;;;;;22.96;50.13;97284.30;110180;1243;58953;-64
2023/06/29 10:23:16;;;;;;;1.70;1.60;;;;;;;23.37;50.37;97279.30;110191;1242;58882;-64
2023/06/29 10:25:51;;;;;;;3.40;2.00;;;;;;;23.40;47.64;97276.70;110127;1241;71000;-65
2023/06/29 10:28:21;;;;;;;2.20;1.80;;;;;;;23.66;47.14;97276.42;110174;1245;69804;-65
2023/06/29 10:30:58;;;;;;;1.90;1.50;;;;;;;23.97;48.65;97274.19;110151;1242;69384;-64
2023/06/29 10:33:27;;;;;;;2.20;1.60;;;;;;;24.20;48.20;97272.98;110197;1241;58893;-64
2023/06/29 10:35:57;;;;;;;;;;;;;;;24.29;48.68;97279.64;110208;1241;58931;-64
2023/06/29 10:38:34;;;;;;;1.60;1.40;;;;;;;24.19;47.31;97279.48;110167;1241;71144;-65
2023/06/29 10:41:07;;;;;;;3.10;1.80;;;;;;;24.07;47.43;97276.81;110137;1242;69077;-64
2023/06/29 10:43:58;;;;;;;3.00;1.70;;;;;;;24.12;47.54;97281.73;110195;1242;69854;-63
2023/06/29 10:46:45;;;;;;;2.00;1.80;;;;;;;23.92;47.53;97280.73;110137;1240;58897;-63
2023/06/29 10:49:26;;;;;;;1.90;1.70;;;;;;;23.55;48.54;97283.08;110187;1242;58875;-63
2023/06/29 10:52:04;;;;;;;3.00;1.90;;;;;;;23.52;48.78;97280.71;110185;1243;70517;-63
2023/06/29 10:54:33;;;;;;;2.30;2.10;;;;;;;23.35;49.88;97281.67;110187;1241;69183;-65
2023/06/29 10:57:07;;;;;;;2.30;2.00;;;;;;;23.22;50.20;97284.70;110206;1242;69890;-64
2023/06/29 10:59:38;;;;;;;2.90;1.90;;;;;;;23.18;50.42;97283.61;110184;1242;59011;-63
2023/06/29 11:02:07;;;;;;;3.40;2.00;;;;;;;23.06;51.10;97283.48;110212;1240;58891;-64
2023/06/29 11:04:40;;;;;;;2.70;1.90;;;;;;;22.96;51.60;97285.98;110179;1241;70521;-63
2023/06/29 11:07:11;;;;;;;2.60;2.20;;;;;;;23.03;51.07;97284.48;110206;1241;69199;-64
2023/06/29 11:09:40;;;;;;;2.70;2.30;;;;;;;22.96;50.27;97288.13;109873;1241;416092;-64
2023/06/29 11:12:09;;;;;;;3.00;1.80;;;;;;;22.98;50.43;97285.27;110243;1242;58930;-63
2023/06/29 11:14:42;;;;;;;1.90;1.60;;;;;;;23.09;49.90;97283.14;110185;1242;58828;-64
2023/06/29 11:17:12;;;;;;;2.60;2.00;;;;;;;23.26;49.90;97284.77;110214;1242;71608;-64
2023/06/29 11:19:45;;;;;;;;;;;;;;;23.48;49.32;97281.58;110160;1242;69795;-64
2023/06/29 11:22:15;;;;;;;2.30;1.70;;;;;;;23.66;49.09;97277.98;110134;1241;69148;-64
2023/06/29 11:24:44;;;;;;;2.20;1.80;;;;;;;24.18;48.64;97275.58;110193;1242;58951;-64
2023/06/29 11:27:19;;;;;;;2.40;1.90;;;;;;;24.40;46.98;97279.44;110186;1242;58866;-63
2023/06/29 11:29:57;;;;;;;2.90;1.90;;;;;;;24.54;45.98;97277.21;110209;1241;70565;-64
2023/06/29 11:32:30;;;;;;;1.80;1.50;;;;;;;24.70;45.58;97272.30;110254;1249;69884;-66
2023/06/29 11:35:00;;;;;;;2.90;1.90;;;;;;;24.82;45.95;97272.31;110191;1247;69462;-64
2023/06/29 11:37:30;;;;;;;2.10;1.90;;;;;;;24.85;44.42;97268.58;110177;1248;58937;-64
2023/06/29 11:40:01;;;;;;;4.30;1.90;;;;;;;24.93;44.99;97270.27;110216;1248;58929;-64
2023/06/29 11:42:35;;;;;;;2.60;1.60;;;;;;;24.67;44.07;97262.47;110228;1242;70095;-66
2023/06/29 11:45:06;;;;;;;2.60;1.60;;;;;;;24.64;44.93;97261.11;110234;1242;69719;-63